sensor_id;sensor_type;location;lat;lon;timestamp;temperature;humidity
8643;DHT22;4359;49.358;11.256;2022-11-14T00:00:23;5.00;99.90
8643;DHT22;4359;49.358;11.256;2022-11-14T00:02:48;5.10;99.90
8643;DHT22;4359;49.358;11.256;2022-11-14T00:05:14;5.10;99.90
8643;DHT22;4359;49.358;11.256;2022-11-14T00:07:40;5.10;99.90
8643;DHT22;4359;49.358;11.256;2022-11-14T00:10:05;5.10;99.90
8643;DHT22;4359;49.358;11.256;2022-11-14T00:12:31;5.20;99.90
8643;DHT22;4359;49.358;11.256;2022-11-14T00:14:57;5.20;99.90
8643;DHT22;4359;49.358;11.256;2022-11-14T00:17:22;5.20;99.90
8643;DHT22;4359;49.358;11.256;2022-11-14T00:19:48;5.20;99.90
8643;DHT22;4359;49.358;11.256;2022-11-14T00:22:13;5.20;99.90
8643;DHT22;4359;49.358;11.256;2022-11-14T00:24:39;5.10;99.90
8643;DHT22;4359;49.358;11.256;2022-11-14T00:27:05;5.00;99.90
8643;DHT22;4359;49.358;11.256;2022-11-14T00:29:30;4.80;99.90
8643;DHT22;4359;49.358;11.256;2022-11-14T00:31:56;4.70;99.90
8643;DHT22;4359;49.358;11.256;2022-11-14T00:34:21;4.50;99.90
8643;DHT22;4359;49.358;11.256;2022-11-14T00:36:47;4.40;99.90
8643;DHT22;4359;49.358;11.256;2022-11-14T00:39:12;4.20;99.90
8643;DHT22;4359;49.358;11.256;2022-11-14T00:41:39;4.00;99.90
8643;DHT22;4359;49.358;11.256;2022-11-14T00:44:04;3.70;99.90
8643;DHT22;4359;49.358;11.256;2022-11-14T00:46:30;3.50;99.90
8643;DHT22;4359;49.358;11.256;2022-11-14T00:48:55;3.30;99.90
8643;DHT22;4359;49.358;11.256;2022-11-14T00:51:21;3.00;99.90
8643;DHT22;4359;49.358;11.256;2022-11-14T00:53:47;3.00;99.90
8643;DHT22;4359;49.358;11.256;2022-11-14T00:56:12;2.80;99.90
8643;DHT22;4359;49.358;11.256;2022-11-14T00:58:38;2.70;99.90
8643;DHT22;4359;49.358;11.256;2022-11-14T01:01:03;2.60;99.90
8643;DHT22;4359;49.358;11.256;2022-11-14T01:03:29;2.50;99.90
8643;DHT22;4359;49.358;11.256;2022-11-14T01:05:54;2.50;99.90
8643;DHT22;4359;49.358;11.256;2022-11-14T01:08:21;2.40;99.90
8643;DHT22;4359;49.358;11.256;2022-11-14T01:10:48;2.30;99.90
8643;DHT22;4359;49.358;11.256;2022-11-14T01:13:14;2.20;99.90
8643;DHT22;4359;49.358;11.256;2022-11-14T01:15:41;2.10;99.90
8643;DHT22;4359;49.358;11.256;2022-11-14T01:18:07;2.00;99.90
8643;DHT22;4359;49.358;11.256;2022-11-14T01:20:33;2.00;99.90
8643;DHT22;4359;49.358;11.256;2022-11-14T01:22:59;1.90;99.90
8643;DHT22;4359;49.358;11.256;2022-11-14T01:25:24;2.10;99.90
8643;DHT22;4359;49.358;11.256;2022-11-14T01:27:50;2.30;99.90
8643;DHT22;4359;49.358;11.256;2022-11-14T01:30:15;2.60;99.90
8643;DHT22;4359;49.358;11.256;2022-11-14T01:32:41;2.90;99.90
8643;DHT22;4359;49.358;11.256;2022-11-14T01:35:06;2.90;99.90
8643;DHT22;4359;49.358;11.256;2022-11-14T01:37:32;2.90;99.90
8643;DHT22;4359;49.358;11.256;2022-11-14T01:39:57;2.80;99.90
8643;DHT22;4359;49.358;11.256;2022-11-14T01:42:23;2.80;99.90
8643;DHT22;4359;49.358;11.256;2022-11-14T01:44:50;2.80;99.90
8643;DHT22;4359;49.358;11.256;2022-11-14T01:47:20;2.80;99.90
8643;DHT22;4359;49.358;11.256;2022-11-14T01:49:47;3.20;99.90
8643;DHT22;4359;49.358;11.256;2022-11-14T01:54:40;3.30;99.90
8643;DHT22;4359;49.358;11.256;2022-11-14T01:57:07;3.20;99.90
8643;DHT22;4359;49.358;11.256;2022-11-14T01:59:35;3.00;99.90
8643;DHT22;4359;49.358;11.256;2022-11-14T02:02:04;3.00;99.90
8643;DHT22;4359;49.358;11.256;2022-11-14T02:04:32;2.90;99.90
8643;DHT22;4359;49.358;11.256;2022-11-14T02:06:59;3.10;99.90
8643;DHT22;4359;49.358;11.256;2022-11-14T02:09:26;3.20;99.90
8643;DHT22;4359;49.358;11.256;2022-11-14T02:11:52;3.30;99.90
8643;DHT22;4359;49.358;11.256;2022-11-14T02:14:18;3.30;99.90
8643;DHT22;4359;49.358;11.256;2022-11-14T02:16:44;3.40;99.90
8643;DHT22;4359;49.358;11.256;2022-11-14T02:19:11;3.50;99.90
8643;DHT22;4359;49.358;11.256;2022-11-14T02:21:38;3.80;99.90
8643;DHT22;4359;49.358;11.256;2022-11-14T02:24:06;3.90;99.90
8643;DHT22;4359;49.358;11.256;2022-11-14T02:26:33;4.00;99.90
8643;DHT22;4359;49.358;11.256;2022-11-14T02:28:58;4.00;99.90
8643;DHT22;4359;49.358;11.256;2022-11-14T02:31:24;4.20;99.90
8643;DHT22;4359;49.358;11.256;2022-11-14T02:33:49;4.30;99.90
8643;DHT22;4359;49.358;11.256;2022-11-14T02:36:15;4.50;99.90
8643;DHT22;4359;49.358;11.256;2022-11-14T02:38:40;4.60;99.90
8643;DHT22;4359;49.358;11.256;2022-11-14T02:41:06;4.50;99.90
8643;DHT22;4359;49.358;11.256;2022-11-14T02:43:31;4.30;99.90
8643;DHT22;4359;49.358;11.256;2022-11-14T02:45:57;3.90;99.90
8643;DHT22;4359;49.358;11.256;2022-11-14T02:48:22;3.50;99.90
8643;DHT22;4359;49.358;11.256;2022-11-14T02:50:48;3.30;99.90
8643;DHT22;4359;49.358;11.256;2022-11-14T02:53:13;3.10;99.90
8643;DHT22;4359;49.358;11.256;2022-11-14T02:55:39;2.90;99.90
8643;DHT22;4359;49.358;11.256;2022-11-14T02:58:04;2.60;99.90
8643;DHT22;4359;49.358;11.256;2022-11-14T03:00:30;2.40;99.90
8643;DHT22;4359;49.358;11.256;2022-11-14T03:02:56;2.20;99.90
8643;DHT22;4359;49.358;11.256;2022-11-14T03:05:21;2.00;99.90
8643;DHT22;4359;49.358;11.256;2022-11-14T03:07:47;1.90;99.90
8643;DHT22;4359;49.358;11.256;2022-11-14T03:10:13;1.80;99.90
8643;DHT22;4359;49.358;11.256;2022-11-14T03:12:38;1.70;99.90
8643;DHT22;4359;49.358;11.256;2022-11-14T03:15:04;1.60;99.90
8643;DHT22;4359;49.358;11.256;2022-11-14T03:17:31;1.60;99.90
8643;DHT22;4359;49.358;11.256;2022-11-14T03:19:56;1.60;99.90
8643;DHT22;4359;49.358;11.256;2022-11-14T03:22:22;1.60;99.90
8643;DHT22;4359;49.358;11.256;2022-11-14T03:24:47;1.60;99.90
8643;DHT22;4359;49.358;11.256;2022-11-14T03:27:13;1.60;99.90
8643;DHT22;4359;49.358;11.256;2022-11-14T03:29:38;1.40;99.90
8643;DHT22;4359;49.358;11.256;2022-11-14T03:32:04;1.30;99.90
8643;DHT22;4359;49.358;11.256;2022-11-14T03:34:29;1.20;99.90
8643;DHT22;4359;49.358;11.256;2022-11-14T03:36:55;1.10;99.90
8643;DHT22;4359;49.358;11.256;2022-11-14T03:39:20;1.20;99.90
8643;DHT22;4359;49.358;11.256;2022-11-14T03:41:46;1.60;99.90
8643;DHT22;4359;49.358;11.256;2022-11-14T03:44:11;1.80;99.90
8643;DHT22;4359;49.358;11.256;2022-11-14T03:46:37;1.80;99.90
8643;DHT22;4359;49.358;11.256;2022-11-14T03:49:02;1.90;99.90
8643;DHT22;4359;49.358;11.256;2022-11-14T03:51:28;1.90;99.90
8643;DHT22;4359;49.358;11.256;2022-11-14T03:53:53;2.20;99.90
8643;DHT22;4359;49.358;11.256;2022-11-14T03:56:19;2.50;99.90
8643;DHT22;4359;49.358;11.256;2022-11-14T03:58:44;3.20;99.90
8643;DHT22;4359;49.358;11.256;2022-11-14T04:01:10;3.70;99.90
8643;DHT22;4359;49.358;11.256;2022-11-14T04:03:35;3.90;99.90
8643;DHT22;4359;49.358;11.256;2022-11-14T04:06:01;3.90;99.90
8643;DHT22;4359;49.358;11.256;2022-11-14T04:08:27;4.00;99.90
8643;DHT22;4359;49.358;11.256;2022-11-14T04:10:52;4.10;99.90
8643;DHT22;4359;49.358;11.256;2022-11-14T04:13:18;4.00;99.90
8643;DHT22;4359;49.358;11.256;2022-11-14T04:15:43;3.90;99.90
8643;DHT22;4359;49.358;11.256;2022-11-14T04:18:10;3.50;99.90
8643;DHT22;4359;49.358;11.256;2022-11-14T04:20:35;3.30;99.90
8643;DHT22;4359;49.358;11.256;2022-11-14T04:23:01;3.00;99.90
8643;DHT22;4359;49.358;11.256;2022-11-14T04:25:27;2.90;99.90
8643;DHT22;4359;49.358;11.256;2022-11-14T04:27:52;2.80;99.90
8643;DHT22;4359;49.358;11.256;2022-11-14T04:30:18;2.60;99.90
8643;DHT22;4359;49.358;11.256;2022-11-14T04:32:44;2.50;99.90
8643;DHT22;4359;49.358;11.256;2022-11-14T04:35:10;2.30;99.90
8643;DHT22;4359;49.358;11.256;2022-11-14T04:37:35;2.20;99.90
8643;DHT22;4359;49.358;11.256;2022-11-14T04:40:03;2.00;99.90
8643;DHT22;4359;49.358;11.256;2022-11-14T04:42:29;1.90;99.90
8643;DHT22;4359;49.358;11.256;2022-11-14T04:44:55;1.80;99.90
8643;DHT22;4359;49.358;11.256;2022-11-14T04:47:20;1.90;99.90
8643;DHT22;4359;49.358;11.256;2022-11-14T04:49:46;2.10;99.90
8643;DHT22;4359;49.358;11.256;2022-11-14T04:52:11;2.20;99.90
8643;DHT22;4359;49.358;11.256;2022-11-14T04:54:37;2.20;99.90
8643;DHT22;4359;49.358;11.256;2022-11-14T04:57:02;2.00;99.90
8643;DHT22;4359;49.358;11.256;2022-11-14T04:59:28;1.80;99.90
8643;DHT22;4359;49.358;11.256;2022-11-14T05:01:53;1.80;99.90
8643;DHT22;4359;49.358;11.256;2022-11-14T05:04:19;1.80;99.90
8643;DHT22;4359;49.358;11.256;2022-11-14T05:06:44;1.80;99.90
8643;DHT22;4359;49.358;11.256;2022-11-14T05:09:10;1.70;99.90
8643;DHT22;4359;49.358;11.256;2022-11-14T05:11:35;1.60;99.90
8643;DHT22;4359;49.358;11.256;2022-11-14T05:14:01;1.50;99.90
8643;DHT22;4359;49.358;11.256;2022-11-14T05:16:26;1.40;99.90
8643;DHT22;4359;49.358;11.256;2022-11-14T05:18:52;1.30;99.90
8643;DHT22;4359;49.358;11.256;2022-11-14T05:21:18;1.20;99.90
8643;DHT22;4359;49.358;11.256;2022-11-14T05:23:43;1.10;99.90
8643;DHT22;4359;49.358;11.256;2022-11-14T05:26:10;1.00;99.90
8643;DHT22;4359;49.358;11.256;2022-11-14T05:28:36;1.00;99.90
8643;DHT22;4359;49.358;11.256;2022-11-14T05:31:11;1.00;99.90
8643;DHT22;4359;49.358;11.256;2022-11-14T05:33:43;0.90;99.90
8643;DHT22;4359;49.358;11.256;2022-11-14T05:36:13;0.80;99.90
8643;DHT22;4359;49.358;11.256;2022-11-14T05:38:40;0.70;99.90
8643;DHT22;4359;49.358;11.256;2022-11-14T05:41:06;0.70;99.90
8643;DHT22;4359;49.358;11.256;2022-11-14T05:43:32;0.60;99.90
8643;DHT22;4359;49.358;11.256;2022-11-14T05:45:58;0.60;99.90
8643;DHT22;4359;49.358;11.256;2022-11-14T05:48:24;0.50;99.90
8643;DHT22;4359;49.358;11.256;2022-11-14T05:50:53;0.60;99.90
8643;DHT22;4359;49.358;11.256;2022-11-14T05:53:18;0.50;99.90
8643;DHT22;4359;49.358;11.256;2022-11-14T05:55:43;0.60;99.90
8643;DHT22;4359;49.358;11.256;2022-11-14T05:58:09;0.60;99.90
8643;DHT22;4359;49.358;11.256;2022-11-14T06:00:35;0.60;99.90
8643;DHT22;4359;49.358;11.256;2022-11-14T06:03:00;0.60;99.90
8643;DHT22;4359;49.358;11.256;2022-11-14T06:05:26;0.80;99.90
8643;DHT22;4359;49.358;11.256;2022-11-14T06:07:54;0.90;99.90
8643;DHT22;4359;49.358;11.256;2022-11-14T06:10:23;1.00;99.90
8643;DHT22;4359;49.358;11.256;2022-11-14T06:12:49;1.10;99.90
8643;DHT22;4359;49.358;11.256;2022-11-14T06:15:15;1.00;99.90
8643;DHT22;4359;49.358;11.256;2022-11-14T06:17:41;1.20;99.90
8643;DHT22;4359;49.358;11.256;2022-11-14T06:20:06;1.10;99.90
8643;DHT22;4359;49.358;11.256;2022-11-14T06:22:32;1.00;99.90
8643;DHT22;4359;49.358;11.256;2022-11-14T06:24:59;1.00;99.90
8643;DHT22;4359;49.358;11.256;2022-11-14T06:27:24;0.90;99.90
8643;DHT22;4359;49.358;11.256;2022-11-14T06:29:50;0.80;99.90
8643;DHT22;4359;49.358;11.256;2022-11-14T06:32:15;0.90;99.90
8643;DHT22;4359;49.358;11.256;2022-11-14T06:34:41;0.90;99.90
8643;DHT22;4359;49.358;11.256;2022-11-14T06:37:06;0.90;99.90
8643;DHT22;4359;49.358;11.256;2022-11-14T06:39:32;0.90;99.90
8643;DHT22;4359;49.358;11.256;2022-11-14T06:41:57;0.90;99.90
8643;DHT22;4359;49.358;11.256;2022-11-14T06:44:23;0.90;99.90
8643;DHT22;4359;49.358;11.256;2022-11-14T06:46:48;0.90;99.90
8643;DHT22;4359;49.358;11.256;2022-11-14T06:49:14;1.00;99.90
8643;DHT22;4359;49.358;11.256;2022-11-14T06:51:42;1.00;99.90
8643;DHT22;4359;49.358;11.256;2022-11-14T06:54:11;1.00;99.90
8643;DHT22;4359;49.358;11.256;2022-11-14T06:56:36;1.00;99.90
8643;DHT22;4359;49.358;11.256;2022-11-14T06:59:02;1.00;99.90
8643;DHT22;4359;49.358;11.256;2022-11-14T07:01:27;1.10;99.90
8643;DHT22;4359;49.358;11.256;2022-11-14T07:03:53;1.10;99.90
8643;DHT22;4359;49.358;11.256;2022-11-14T07:06:22;1.20;99.90
8643;DHT22;4359;49.358;11.256;2022-11-14T07:08:48;1.30;99.90
8643;DHT22;4359;49.358;11.256;2022-11-14T07:11:17;1.60;99.90
8643;DHT22;4359;49.358;11.256;2022-11-14T07:14:01;2.00;99.90
8643;DHT22;4359;49.358;11.256;2022-11-14T07:16:35;2.30;99.90
8643;DHT22;4359;49.358;11.256;2022-11-14T07:19:02;2.50;99.90
8643;DHT22;4359;49.358;11.256;2022-11-14T07:21:29;2.50;99.90
8643;DHT22;4359;49.358;11.256;2022-11-14T07:23:55;2.30;99.90
8643;DHT22;4359;49.358;11.256;2022-11-14T07:26:20;2.30;99.90
8643;DHT22;4359;49.358;11.256;2022-11-14T07:28:46;2.50;99.90
8643;DHT22;4359;49.358;11.256;2022-11-14T07:31:12;2.80;99.90
8643;DHT22;4359;49.358;11.256;2022-11-14T07:33:39;3.30;99.90
8643;DHT22;4359;49.358;11.256;2022-11-14T07:36:05;3.50;99.90
8643;DHT22;4359;49.358;11.256;2022-11-14T07:38:31;3.70;99.90
8643;DHT22;4359;49.358;11.256;2022-11-14T07:41:15;3.70;99.90
8643;DHT22;4359;49.358;11.256;2022-11-14T07:43:41;3.80;99.90
8643;DHT22;4359;49.358;11.256;2022-11-14T07:46:10;4.00;99.90
8643;DHT22;4359;49.358;11.256;2022-11-14T07:48:36;4.30;99.90
8643;DHT22;4359;49.358;11.256;2022-11-14T07:51:03;4.60;99.90
8643;DHT22;4359;49.358;11.256;2022-11-14T07:53:29;4.70;99.90
8643;DHT22;4359;49.358;11.256;2022-11-14T07:55:55;4.50;99.90
8643;DHT22;4359;49.358;11.256;2022-11-14T07:58:21;4.50;99.90
8643;DHT22;4359;49.358;11.256;2022-11-14T08:00:46;4.80;99.90
8643;DHT22;4359;49.358;11.256;2022-11-14T08:03:12;5.30;99.90
8643;DHT22;4359;49.358;11.256;2022-11-14T08:05:37;5.80;99.90
8643;DHT22;4359;49.358;11.256;2022-11-14T08:08:03;6.30;99.90
8643;DHT22;4359;49.358;11.256;2022-11-14T08:10:29;6.60;99.90
8643;DHT22;4359;49.358;11.256;2022-11-14T08:13:01;7.20;99.90
8643;DHT22;4359;49.358;11.256;2022-11-14T08:15:27;7.80;99.90
8643;DHT22;4359;49.358;11.256;2022-11-14T08:17:56;8.30;99.90
8643;DHT22;4359;49.358;11.256;2022-11-14T08:20:22;8.60;99.90
8643;DHT22;4359;49.358;11.256;2022-11-14T08:22:48;8.90;99.90
8643;DHT22;4359;49.358;11.256;2022-11-14T08:25:13;9.20;99.90
8643;DHT22;4359;49.358;11.256;2022-11-14T08:27:39;9.10;99.90
8643;DHT22;4359;49.358;11.256;2022-11-14T08:30:04;9.30;99.90
8643;DHT22;4359;49.358;11.256;2022-11-14T08:32:30;9.30;99.90
8643;DHT22;4359;49.358;11.256;2022-11-14T08:34:55;9.40;99.90
8643;DHT22;4359;49.358;11.256;2022-11-14T08:37:21;9.70;99.90
8643;DHT22;4359;49.358;11.256;2022-11-14T08:39:46;9.70;99.90
8643;DHT22;4359;49.358;11.256;2022-11-14T08:42:12;10.00;99.90
8643;DHT22;4359;49.358;11.256;2022-11-14T08:44:37;10.20;99.90
8643;DHT22;4359;49.358;11.256;2022-11-14T08:47:03;10.10;99.90
8643;DHT22;4359;49.358;11.256;2022-11-14T08:49:28;9.90;99.90
8643;DHT22;4359;49.358;11.256;2022-11-14T08:51:54;9.60;99.90
8643;DHT22;4359;49.358;11.256;2022-11-14T08:54:20;9.40;99.90
8643;DHT22;4359;49.358;11.256;2022-11-14T08:56:45;9.20;99.90
8643;DHT22;4359;49.358;11.256;2022-11-14T08:59:11;9.00;99.90
8643;DHT22;4359;49.358;11.256;2022-11-14T09:01:36;8.90;99.90
8643;DHT22;4359;49.358;11.256;2022-11-14T09:04:02;8.80;99.90
8643;DHT22;4359;49.358;11.256;2022-11-14T09:06:28;8.80;99.90
8643;DHT22;4359;49.358;11.256;2022-11-14T09:08:53;8.70;99.90
8643;DHT22;4359;49.358;11.256;2022-11-14T09:11:19;8.70;99.90
8643;DHT22;4359;49.358;11.256;2022-11-14T09:13:44;8.60;99.90
8643;DHT22;4359;49.358;11.256;2022-11-14T09:16:10;8.60;99.90
8643;DHT22;4359;49.358;11.256;2022-11-14T09:18:36;8.70;99.90
8643;DHT22;4359;49.358;11.256;2022-11-14T09:21:05;8.80;99.90
8643;DHT22;4359;49.358;11.256;2022-11-14T09:23:31;8.70;99.90
8643;DHT22;4359;49.358;11.256;2022-11-14T09:25:57;8.80;99.90
8643;DHT22;4359;49.358;11.256;2022-11-14T09:28:23;8.80;99.90
8643;DHT22;4359;49.358;11.256;2022-11-14T09:30:48;8.80;99.90
8643;DHT22;4359;49.358;11.256;2022-11-14T09:33:14;8.90;99.90
8643;DHT22;4359;49.358;11.256;2022-11-14T09:35:39;9.00;99.90
8643;DHT22;4359;49.358;11.256;2022-11-14T09:38:08;9.10;99.90
8643;DHT22;4359;49.358;11.256;2022-11-14T09:43:23;9.20;99.90
8643;DHT22;4359;49.358;11.256;2022-11-14T09:45:51;9.30;99.90
8643;DHT22;4359;49.358;11.256;2022-11-14T09:48:19;9.40;99.90
8643;DHT22;4359;49.358;11.256;2022-11-14T09:50:51;9.40;99.90
8643;DHT22;4359;49.358;11.256;2022-11-14T09:53:22;9.40;99.90
8643;DHT22;4359;49.358;11.256;2022-11-14T09:55:51;9.50;99.90
8643;DHT22;4359;49.358;11.256;2022-11-14T09:58:18;9.60;99.90
8643;DHT22;4359;49.358;11.256;2022-11-14T10:06:02;9.80;99.90
8643;DHT22;4359;49.358;11.256;2022-11-14T10:11:22;10.00;99.90
8643;DHT22;4359;49.358;11.256;2022-11-14T10:19:12;10.20;99.90
8643;DHT22;4359;49.358;11.256;2022-11-14T10:26:59;10.50;99.90
8643;DHT22;4359;49.358;11.256;2022-11-14T10:34:38;10.70;99.90
8643;DHT22;4359;49.358;11.256;2022-11-14T10:39:36;10.80;99.90
8643;DHT22;4359;49.358;11.256;2022-11-14T10:42:08;10.80;99.90
8643;DHT22;4359;49.358;11.256;2022-11-14T10:44:37;10.90;99.90
8643;DHT22;4359;49.358;11.256;2022-11-14T10:47:06;11.00;99.90
8643;DHT22;4359;49.358;11.256;2022-11-14T10:49:35;11.10;99.90
8643;DHT22;4359;49.358;11.256;2022-11-14T10:52:02;11.10;99.90
8643;DHT22;4359;49.358;11.256;2022-11-14T10:54:37;11.20;99.90
8643;DHT22;4359;49.358;11.256;2022-11-14T10:57:10;11.30;99.90
8643;DHT22;4359;49.358;11.256;2022-11-14T10:59:37;11.40;99.90
8643;DHT22;4359;49.358;11.256;2022-11-14T11:02:03;11.40;99.90
8643;DHT22;4359;49.358;11.256;2022-11-14T11:04:32;11.50;99.90
8643;DHT22;4359;49.358;11.256;2022-11-14T11:09:36;11.80;99.90
8643;DHT22;4359;49.358;11.256;2022-11-14T11:12:24;11.80;99.90
8643;DHT22;4359;49.358;11.256;2022-11-14T11:17:55;12.10;99.90
8643;DHT22;4359;49.358;11.256;2022-11-14T11:20:26;12.20;99.90
8643;DHT22;4359;49.358;11.256;2022-11-14T11:23:02;12.50;99.90
8643;DHT22;4359;49.358;11.256;2022-11-14T11:25:29;12.80;99.90
8643;DHT22;4359;49.358;11.256;2022-11-14T11:30:39;13.30;99.90
8643;DHT22;4359;49.358;11.256;2022-11-14T11:33:15;13.60;99.90
8643;DHT22;4359;49.358;11.256;2022-11-14T11:35:41;13.70;99.90
8643;DHT22;4359;49.358;11.256;2022-11-14T11:38:07;13.80;99.90
8643;DHT22;4359;49.358;11.256;2022-11-14T11:40:35;14.10;99.90
8643;DHT22;4359;49.358;11.256;2022-11-14T11:43:02;14.40;99.90
8643;DHT22;4359;49.358;11.256;2022-11-14T11:45:29;14.40;99.90
8643;DHT22;4359;49.358;11.256;2022-11-14T11:47:58;14.40;99.90
8643;DHT22;4359;49.358;11.256;2022-11-14T11:50:25;14.40;99.90
8643;DHT22;4359;49.358;11.256;2022-11-14T11:53:04;14.40;99.90
8643;DHT22;4359;49.358;11.256;2022-11-14T11:55:33;14.50;99.90
8643;DHT22;4359;49.358;11.256;2022-11-14T11:58:01;14.50;99.90
8643;DHT22;4359;49.358;11.256;2022-11-14T12:00:29;14.50;99.90
8643;DHT22;4359;49.358;11.256;2022-11-14T12:02:55;14.50;99.90
8643;DHT22;4359;49.358;11.256;2022-11-14T12:10:41;14.60;99.90
8643;DHT22;4359;49.358;11.256;2022-11-14T12:18:16;14.50;99.90
8643;DHT22;4359;49.358;11.256;2022-11-14T12:26:04;14.50;99.90
8643;DHT22;4359;49.358;11.256;2022-11-14T12:31:24;14.90;99.90
8643;DHT22;4359;49.358;11.256;2022-11-14T12:33:56;14.50;99.90
8643;DHT22;4359;49.358;11.256;2022-11-14T12:36:26;14.50;99.90
8643;DHT22;4359;49.358;11.256;2022-11-14T12:38:52;14.70;99.90
8643;DHT22;4359;49.358;11.256;2022-11-14T12:41:23;14.70;99.90
8643;DHT22;4359;49.358;11.256;2022-11-14T12:43:50;14.60;99.90
8643;DHT22;4359;49.358;11.256;2022-11-14T12:46:15;14.60;99.90
8643;DHT22;4359;49.358;11.256;2022-11-14T12:48:43;14.50;99.90
8643;DHT22;4359;49.358;11.256;2022-11-14T12:53:51;14.50;99.90
8643;DHT22;4359;49.358;11.256;2022-11-14T12:59:02;14.70;99.90
8643;DHT22;4359;49.358;11.256;2022-11-14T13:06:51;15.00;99.90
8643;DHT22;4359;49.358;11.256;2022-11-14T13:11:47;15.00;99.90
8643;DHT22;4359;49.358;11.256;2022-11-14T13:14:46;15.10;99.90
8643;DHT22;4359;49.358;11.256;2022-11-14T13:17:31;15.00;99.90
8643;DHT22;4359;49.358;11.256;2022-11-14T13:20:32;15.20;99.90
8643;DHT22;4359;49.358;11.256;2022-11-14T13:33:40;15.80;99.90
8643;DHT22;4359;49.358;11.256;2022-11-14T13:36:05;15.80;99.90
8643;DHT22;4359;49.358;11.256;2022-11-14T13:38:38;15.70;99.90
8643;DHT22;4359;49.358;11.256;2022-11-14T13:41:17;15.70;99.90
8643;DHT22;4359;49.358;11.256;2022-11-14T13:44:05;15.60;99.90
8643;DHT22;4359;49.358;11.256;2022-11-14T13:49:04;15.20;99.90
8643;DHT22;4359;49.358;11.256;2022-11-14T13:51:32;15.20;99.90
8643;DHT22;4359;49.358;11.256;2022-11-14T13:53:58;15.20;99.90
8643;DHT22;4359;49.358;11.256;2022-11-14T13:58:56;14.90;99.90
8643;DHT22;4359;49.358;11.256;2022-11-14T14:06:36;14.50;99.90
8643;DHT22;4359;49.358;11.256;2022-11-14T14:12:03;14.30;99.90
8643;DHT22;4359;49.358;11.256;2022-11-14T14:14:40;14.30;99.90
8643;DHT22;4359;49.358;11.256;2022-11-14T14:17:16;14.20;99.90
8643;DHT22;4359;49.358;11.256;2022-11-14T14:22:15;13.70;99.90
8643;DHT22;4359;49.358;11.256;2022-11-14T14:29:53;12.90;99.90
8643;DHT22;4359;49.358;11.256;2022-11-14T14:32:19;12.60;99.90
8643;DHT22;4359;49.358;11.256;2022-11-14T14:34:44;12.50;99.90
8643;DHT22;4359;49.358;11.256;2022-11-14T14:37:17;12.30;99.90
8643;DHT22;4359;49.358;11.256;2022-11-14T14:39:56;12.10;99.90
8643;DHT22;4359;49.358;11.256;2022-11-14T14:42:22;12.00;99.90
8643;DHT22;4359;49.358;11.256;2022-11-14T14:44:48;11.90;99.90
8643;DHT22;4359;49.358;11.256;2022-11-14T14:47:26;11.80;99.90
8643;DHT22;4359;49.358;11.256;2022-11-14T14:49:55;11.70;99.90
8643;DHT22;4359;49.358;11.256;2022-11-14T14:52:21;11.60;99.90
8643;DHT22;4359;49.358;11.256;2022-11-14T14:54:54;11.50;99.90
8643;DHT22;4359;49.358;11.256;2022-11-14T14:57:20;11.40;99.90
8643;DHT22;4359;49.358;11.256;2022-11-14T14:59:46;11.30;99.90
8643;DHT22;4359;49.358;11.256;2022-11-14T15:02:22;11.20;99.90
8643;DHT22;4359;49.358;11.256;2022-11-14T15:04:49;11.10;99.90
8643;DHT22;4359;49.358;11.256;2022-11-14T15:07:18;11.10;99.90
8643;DHT22;4359;49.358;11.256;2022-11-14T15:09:51;11.00;99.90
8643;DHT22;4359;49.358;11.256;2022-11-14T15:12:17;10.80;99.90
8643;DHT22;4359;49.358;11.256;2022-11-14T15:14:42;10.70;99.90
8643;DHT22;4359;49.358;11.256;2022-11-14T15:17:08;10.70;99.90
8643;DHT22;4359;49.358;11.256;2022-11-14T15:19:41;10.80;99.90
8643;DHT22;4359;49.358;11.256;2022-11-14T15:24:35;10.50;99.90
8643;DHT22;4359;49.358;11.256;2022-11-14T15:27:04;10.30;99.90
8643;DHT22;4359;49.358;11.256;2022-11-14T15:29:30;10.10;99.90
8643;DHT22;4359;49.358;11.256;2022-11-14T15:32:00;10.00;99.90
8643;DHT22;4359;49.358;11.256;2022-11-14T15:34:33;9.90;99.90
8643;DHT22;4359;49.358;11.256;2022-11-14T15:39:30;9.90;99.90
8643;DHT22;4359;49.358;11.256;2022-11-14T15:44:37;9.70;99.90
8643;DHT22;4359;49.358;11.256;2022-11-14T15:47:03;9.50;99.90
8643;DHT22;4359;49.358;11.256;2022-11-14T15:49:29;9.30;99.90
8643;DHT22;4359;49.358;11.256;2022-11-14T15:51:55;9.00;99.90
8643;DHT22;4359;49.358;11.256;2022-11-14T15:54:28;8.80;99.90
8643;DHT22;4359;49.358;11.256;2022-11-14T15:56:55;8.60;99.90
8643;DHT22;4359;49.358;11.256;2022-11-14T15:59:21;8.50;99.90
8643;DHT22;4359;49.358;11.256;2022-11-14T16:01:48;8.50;99.90
8643;DHT22;4359;49.358;11.256;2022-11-14T16:04:16;8.20;99.90
8643;DHT22;4359;49.358;11.256;2022-11-14T16:06:42;8.10;99.90
8643;DHT22;4359;49.358;11.256;2022-11-14T16:09:16;8.00;99.90
8643;DHT22;4359;49.358;11.256;2022-11-14T16:11:41;7.90;99.90
8643;DHT22;4359;49.358;11.256;2022-11-14T16:14:07;7.90;99.90
8643;DHT22;4359;49.358;11.256;2022-11-14T16:16:33;7.90;99.90
8643;DHT22;4359;49.358;11.256;2022-11-14T16:18:58;7.80;99.90
8643;DHT22;4359;49.358;11.256;2022-11-14T16:21:24;7.80;99.90
8643;DHT22;4359;49.358;11.256;2022-11-14T16:23:49;7.70;99.90
8643;DHT22;4359;49.358;11.256;2022-11-14T16:26:15;7.70;99.90
8643;DHT22;4359;49.358;11.256;2022-11-14T16:28:40;7.80;99.90
8643;DHT22;4359;49.358;11.256;2022-11-14T16:31:13;7.70;99.90
8643;DHT22;4359;49.358;11.256;2022-11-14T16:33:38;7.60;99.90
8643;DHT22;4359;49.358;11.256;2022-11-14T16:36:04;7.50;99.90
8643;DHT22;4359;49.358;11.256;2022-11-14T16:38:30;7.40;99.90
8643;DHT22;4359;49.358;11.256;2022-11-14T16:40:55;7.30;99.90
8643;DHT22;4359;49.358;11.256;2022-11-14T16:43:21;7.20;99.90
8643;DHT22;4359;49.358;11.256;2022-11-14T16:45:46;7.20;99.90
8643;DHT22;4359;49.358;11.256;2022-11-14T16:48:12;7.10;99.90
8643;DHT22;4359;49.358;11.256;2022-11-14T16:50:38;7.20;99.90
8643;DHT22;4359;49.358;11.256;2022-11-14T16:53:03;7.10;99.90
8643;DHT22;4359;49.358;11.256;2022-11-14T16:55:29;7.00;99.90
8643;DHT22;4359;49.358;11.256;2022-11-14T16:57:54;6.90;99.90
8643;DHT22;4359;49.358;11.256;2022-11-14T17:00:20;6.90;99.90
8643;DHT22;4359;49.358;11.256;2022-11-14T17:02:45;6.80;99.90
8643;DHT22;4359;49.358;11.256;2022-11-14T17:05:11;6.70;99.90
8643;DHT22;4359;49.358;11.256;2022-11-14T17:07:37;6.60;99.90
8643;DHT22;4359;49.358;11.256;2022-11-14T17:10:03;6.50;99.90
8643;DHT22;4359;49.358;11.256;2022-11-14T17:12:29;6.50;99.90
8643;DHT22;4359;49.358;11.256;2022-11-14T17:14:56;6.40;99.90
8643;DHT22;4359;49.358;11.256;2022-11-14T17:17:21;6.30;99.90
8643;DHT22;4359;49.358;11.256;2022-11-14T17:19:47;6.50;99.90
8643;DHT22;4359;49.358;11.256;2022-11-14T17:22:13;6.60;99.90
8643;DHT22;4359;49.358;11.256;2022-11-14T17:24:39;6.70;99.90
8643;DHT22;4359;49.358;11.256;2022-11-14T17:27:05;6.70;99.90
8643;DHT22;4359;49.358;11.256;2022-11-14T17:29:30;6.70;99.90
8643;DHT22;4359;49.358;11.256;2022-11-14T17:31:56;6.70;99.90
8643;DHT22;4359;49.358;11.256;2022-11-14T17:34:21;6.70;99.90
8643;DHT22;4359;49.358;11.256;2022-11-14T17:36:47;6.70;99.90
8643;DHT22;4359;49.358;11.256;2022-11-14T17:39:12;6.60;99.90
8643;DHT22;4359;49.358;11.256;2022-11-14T17:41:38;6.60;99.90
8643;DHT22;4359;49.358;11.256;2022-11-14T17:44:03;6.60;99.90
8643;DHT22;4359;49.358;11.256;2022-11-14T17:46:29;6.70;99.90